Main page
METAR-TAF:

METAR-TAF

Airports :

Schwäbisch Hall, Germany

latitude: 49-07-06N, longitude: 9-47-02E, elevation: 398 m

Current weather observation

The report was made 5 hours and 28 minutes ago, at 17:50 UTC
Wind 10 kt from the East
Temperature 17°C
Humidity 39%
Pressure 1004 hPa
Visibility 10 km or more
no clouds below 1500 m and no cumulonimbus

METAR: EDTY 221750Z 08010KT CAVOK 17/03 Q1004

Time: 01:18 (23:18 UTC)

Forecast

The report was made 6 hours and 18 minutes ago, at 17:00 UTC
Forecast valid from 22 at 18 UTC to 23 at 03 UTC
Wind 12 kt from the East
Visibility 10 km or more
no clouds below 1500 m and no cumulonimbus
Becoming
from 22 at 18 UTC to 22 at 21 UTC
Wind 7 kt from the East/Northeast

TAF: EDTY 221700Z 2218/2303 09012KT CAVOK BECMG 2218/2221 06007KT

Weather observations and forecasts of more than 4000 airports (METAR and TAF reports).

The available stations are represented by yellow and red dots on the map.

Hover mouse over dot to see the name of the station.

Then click to see weather observations and forecasts.

To change the map : click on the green buttons with a black cross to zoom in, on the green button with a dash to zoom out, or on the green arrows for adjacent maps.


METAR-TAF: